sensor_id;sensor_type;location;lat;lon;timestamp;pressure;altitude;pressure_sealevel;temperature;humidity
21100;BME280;10708;50.824;4.408;2023-05-12T00:05:00;100688.09;;;12.23;100.00
21100;BME280;10708;50.824;4.408;2023-05-12T00:10:02;100692.53;;;12.23;100.00
21100;BME280;10708;50.824;4.408;2023-05-12T00:15:06;100690.00;;;12.19;100.00
21100;BME280;10708;50.824;4.408;2023-05-12T00:20:10;100683.78;;;12.20;100.00
21100;BME280;10708;50.824;4.408;2023-05-12T00:25:12;100684.66;;;12.21;100.00
21100;BME280;10708;50.824;4.408;2023-05-12T00:30:15;100684.00;;;12.16;100.00
21100;BME280;10708;50.824;4.408;2023-05-12T00:35:18;100680.34;;;12.18;100.00
21100;BME280;10708;50.824;4.408;2023-05-12T00:40:20;100674.28;;;12.16;100.00
21100;BME280;10708;50.824;4.408;2023-05-12T00:45:22;100673.44;;;12.16;100.00
21100;BME280;10708;50.824;4.408;2023-05-12T00:50:26;100670.66;;;12.19;100.00
21100;BME280;10708;50.824;4.408;2023-05-12T00:55:28;100667.25;;;12.17;100.00
21100;BME280;10708;50.824;4.408;2023-05-12T01:00:30;100666.38;;;12.16;100.00
21100;BME280;10708;50.824;4.408;2023-05-12T01:05:38;100663.66;;;12.18;100.00
21100;BME280;10708;50.824;4.408;2023-05-12T01:10:43;100664.50;;;12.18;100.00
21100;BME280;10708;50.824;4.408;2023-05-12T01:15:46;100660.94;;;12.19;100.00
21100;BME280;10708;50.824;4.408;2023-05-12T01:20:50;100651.31;;;12.18;100.00
21100;BME280;10708;50.824;4.408;2023-05-12T01:25:53;100656.47;;;12.22;100.00
21100;BME280;10708;50.824;4.408;2023-05-12T01:30:58;100653.94;;;12.18;100.00
21100;BME280;10708;50.824;4.408;2023-05-12T01:36:01;100648.66;;;12.18;100.00
21100;BME280;10708;50.824;4.408;2023-05-12T01:41:03;100656.59;;;12.18;100.00
21100;BME280;10708;50.824;4.408;2023-05-12T01:46:06;100656.69;;;12.17;100.00
21100;BME280;10708;50.824;4.408;2023-05-12T01:51:10;100658.47;;;12.16;100.00
21100;BME280;10708;50.824;4.408;2023-05-12T01:56:12;100651.31;;;12.18;100.00
21100;BME280;10708;50.824;4.408;2023-05-12T02:01:15;100650.59;;;12.15;100.00
21100;BME280;10708;50.824;4.408;2023-05-12T02:06:17;100656.78;;;12.14;100.00
21100;BME280;10708;50.824;4.408;2023-05-12T02:11:19;100657.72;;;12.13;100.00
21100;BME280;10708;50.824;4.408;2023-05-12T02:16:23;100650.72;;;12.12;100.00
21100;BME280;10708;50.824;4.408;2023-05-12T02:21:25;100648.00;;;12.13;100.00
21100;BME280;10708;50.824;4.408;2023-05-12T02:26:27;100641.88;;;12.13;100.00
21100;BME280;10708;50.824;4.408;2023-05-12T02:31:30;100642.72;;;12.13;100.00
21100;BME280;10708;50.824;4.408;2023-05-12T02:36:32;100632.06;;;12.16;100.00
21100;BME280;10708;50.824;4.408;2023-05-12T02:41:34;100628.63;;;12.14;100.00
21100;BME280;10708;50.824;4.408;2023-05-12T02:46:39;100636.31;;;12.19;100.00
21100;BME280;10708;50.824;4.408;2023-05-12T02:51:41;100632.91;;;12.17;100.00
21100;BME280;10708;50.824;4.408;2023-05-12T02:56:43;100629.47;;;12.15;100.00
21100;BME280;10708;50.824;4.408;2023-05-12T03:01:46;100624.13;;;12.16;100.00
21100;BME280;10708;50.824;4.408;2023-05-12T03:06:48;100617.06;;;12.17;100.00
21100;BME280;10708;50.824;4.408;2023-05-12T03:11:50;100617.94;;;12.17;100.00
21100;BME280;10708;50.824;4.408;2023-05-12T03:16:53;100618.91;;;12.15;100.00
21100;BME280;10708;50.824;4.408;2023-05-12T03:21:55;100612.88;;;12.11;100.00
21100;BME280;10708;50.824;4.408;2023-05-12T03:26:57;100610.19;;;11.91;100.00
21100;BME280;10708;50.824;4.408;2023-05-12T03:32:01;100615.63;;;11.65;100.00
21100;BME280;10708;50.824;4.408;2023-05-12T03:37:03;100612.66;;;11.51;100.00
21100;BME280;10708;50.824;4.408;2023-05-12T03:42:05;100605.00;;;11.44;100.00
21100;BME280;10708;50.824;4.408;2023-05-12T03:47:09;100606.94;;;11.39;100.00
21100;BME280;10708;50.824;4.408;2023-05-12T03:52:10;100597.31;;;11.38;100.00
21100;BME280;10708;50.824;4.408;2023-05-12T03:57:12;100597.50;;;11.34;100.00
21100;BME280;10708;50.824;4.408;2023-05-12T04:02:16;100597.56;;;11.32;100.00
21100;BME280;10708;50.824;4.408;2023-05-12T04:07:18;100594.91;;;11.32;100.00
21100;BME280;10708;50.824;4.408;2023-05-12T04:12:20;100592.53;;;11.26;100.00
21100;BME280;10708;50.824;4.408;2023-05-12T04:17:23;100589.03;;;11.26;100.00
21100;BME280;10708;50.824;4.408;2023-05-12T04:22:25;100585.53;;;11.25;100.00
21100;BME280;10708;50.824;4.408;2023-05-12T04:27:27;100581.13;;;11.26;100.00
21100;BME280;10708;50.824;4.408;2023-05-12T04:32:30;100581.19;;;11.24;100.00
21100;BME280;10708;50.824;4.408;2023-05-12T04:37:32;100576.75;;;11.25;100.00
21100;BME280;10708;50.824;4.408;2023-05-12T04:42:34;100574.97;;;11.25;100.00
21100;BME280;10708;50.824;4.408;2023-05-12T04:47:37;100582.94;;;11.24;100.00
21100;BME280;10708;50.824;4.408;2023-05-12T04:52:39;100582.09;;;11.23;100.00
21100;BME280;10708;50.824;4.408;2023-05-12T04:57:41;100586.50;;;11.23;100.00
21100;BME280;10708;50.824;4.408;2023-05-12T05:02:45;100595.38;;;11.20;100.00
21100;BME280;10708;50.824;4.408;2023-05-12T05:07:47;100591.94;;;11.18;100.00
21100;BME280;10708;50.824;4.408;2023-05-12T05:12:49;100592.94;;;11.16;100.00
21100;BME280;10708;50.824;4.408;2023-05-12T05:17:52;100596.44;;;11.16;100.00
21100;BME280;10708;50.824;4.408;2023-05-12T05:22:54;100606.91;;;11.18;100.00
21100;BME280;10708;50.824;4.408;2023-05-12T05:27:56;100597.34;;;11.15;100.00
21100;BME280;10708;50.824;4.408;2023-05-12T05:32:59;100601.00;;;11.11;100.00
21100;BME280;10708;50.824;4.408;2023-05-12T05:38:01;100603.13;;;11.01;100.00
21100;BME280;10708;50.824;4.408;2023-05-12T05:43:03;100607.81;;;10.93;100.00
21100;BME280;10708;50.824;4.408;2023-05-12T05:48:07;100603.69;;;10.86;100.00
21100;BME280;10708;50.824;4.408;2023-05-12T05:53:09;100599.44;;;10.82;100.00
21100;BME280;10708;50.824;4.408;2023-05-12T05:58:11;100606.56;;;10.79;100.00
21100;BME280;10708;50.824;4.408;2023-05-12T06:03:15;100612.94;;;10.73;100.00
21100;BME280;10708;50.824;4.408;2023-05-12T06:08:18;100611.22;;;10.72;100.00
21100;BME280;10708;50.824;4.408;2023-05-12T06:13:19;100608.44;;;10.77;100.00
21100;BME280;10708;50.824;4.408;2023-05-12T06:18:23;100610.16;;;10.78;100.00
21100;BME280;10708;50.824;4.408;2023-05-12T06:23:25;100611.78;;;10.80;100.00
21100;BME280;10708;50.824;4.408;2023-05-12T06:28:27;100608.28;;;10.80;100.00
21100;BME280;10708;50.824;4.408;2023-05-12T06:33:31;100607.38;;;10.81;100.00
21100;BME280;10708;50.824;4.408;2023-05-12T06:38:34;100610.06;;;10.79;100.00
21100;BME280;10708;50.824;4.408;2023-05-12T06:43:36;100600.28;;;10.83;100.00
21100;BME280;10708;50.824;4.408;2023-05-12T06:48:39;100595.94;;;10.82;100.00
21100;BME280;10708;50.824;4.408;2023-05-12T06:53:41;100601.78;;;10.90;100.00
21100;BME280;10708;50.824;4.408;2023-05-12T06:58:44;100593.00;;;10.89;100.00
21100;BME280;10708;50.824;4.408;2023-05-12T07:03:49;100590.31;;;10.91;100.00
21100;BME280;10708;50.824;4.408;2023-05-12T07:08:51;100597.13;;;10.98;100.00
21100;BME280;10708;50.824;4.408;2023-05-12T07:13:54;100593.53;;;10.99;100.00
21100;BME280;10708;50.824;4.408;2023-05-12T07:18:59;100595.50;;;10.94;100.00
21100;BME280;10708;50.824;4.408;2023-05-12T07:24:06;100598.69;;;11.02;100.00
21100;BME280;10708;50.824;4.408;2023-05-12T07:29:08;100594.28;;;11.02;100.00
21100;BME280;10708;50.824;4.408;2023-05-12T07:34:12;100590.69;;;11.05;100.00
21100;BME280;10708;50.824;4.408;2023-05-12T07:39:14;100585.88;;;11.16;100.00
21100;BME280;10708;50.824;4.408;2023-05-12T07:44:23;100585.59;;;11.24;100.00
21100;BME280;10708;50.824;4.408;2023-05-12T07:49:26;100586.44;;;11.24;100.00
21100;BME280;10708;50.824;4.408;2023-05-12T07:54:29;100591.66;;;11.26;100.00
21100;BME280;10708;50.824;4.408;2023-05-12T07:59:31;100580.94;;;11.30;100.00
21100;BME280;10708;50.824;4.408;2023-05-12T08:04:37;100580.00;;;11.31;100.00
21100;BME280;10708;50.824;4.408;2023-05-12T08:09:39;100585.63;;;11.45;100.00
21100;BME280;10708;50.824;4.408;2023-05-12T08:14:41;100577.09;;;11.61;100.00
21100;BME280;10708;50.824;4.408;2023-05-12T08:19:44;100580.97;;;11.74;100.00
21100;BME280;10708;50.824;4.408;2023-05-12T08:24:46;100576.53;;;11.76;100.00
21100;BME280;10708;50.824;4.408;2023-05-12T08:29:48;100582.03;;;11.92;100.00
21100;BME280;10708;50.824;4.408;2023-05-12T08:34:52;100585.00;;;12.26;100.00
21100;BME280;10708;50.824;4.408;2023-05-12T08:39:54;100591.00;;;12.50;100.00
21100;BME280;10708;50.824;4.408;2023-05-12T08:44:58;100596.03;;;12.76;100.00
21100;BME280;10708;50.824;4.408;2023-05-12T08:50:04;100600.00;;;13.05;100.00
21100;BME280;10708;50.824;4.408;2023-05-12T08:55:08;100604.41;;;13.25;100.00
21100;BME280;10708;50.824;4.408;2023-05-12T09:00:12;100603.13;;;13.34;100.00
21100;BME280;10708;50.824;4.408;2023-05-12T09:05:15;100612.69;;;13.74;100.00
21100;BME280;10708;50.824;4.408;2023-05-12T09:10:20;100616.13;;;13.76;100.00
21100;BME280;10708;50.824;4.408;2023-05-12T09:15:29;100628.78;;;13.69;100.00
21100;BME280;10708;50.824;4.408;2023-05-12T09:20:42;100621.75;;;13.68;100.00
21100;BME280;10708;50.824;4.408;2023-05-12T09:25:45;100627.38;;;13.62;100.00
21100;BME280;10708;50.824;4.408;2023-05-12T09:30:49;100629.94;;;13.63;100.00
21100;BME280;10708;50.824;4.408;2023-05-12T09:35:53;100626.56;;;13.60;100.00
21100;BME280;10708;50.824;4.408;2023-05-12T09:40:55;100631.50;;;13.49;100.00
21100;BME280;10708;50.824;4.408;2023-05-12T09:46:03;100639.88;;;13.40;100.00
21100;BME280;10708;50.824;4.408;2023-05-12T09:51:08;100636.78;;;13.49;100.00
21100;BME280;10708;50.824;4.408;2023-05-12T09:56:13;100652.03;;;13.44;100.00
21100;BME280;10708;50.824;4.408;2023-05-12T10:01:18;100645.81;;;13.45;100.00
21100;BME280;10708;50.824;4.408;2023-05-12T10:06:25;100651.31;;;13.40;100.00
21100;BME280;10708;50.824;4.408;2023-05-12T10:11:28;100660.47;;;13.52;100.00
21100;BME280;10708;50.824;4.408;2023-05-12T10:16:31;100664.84;;;13.53;100.00
21100;BME280;10708;50.824;4.408;2023-05-12T10:21:35;100671.78;;;13.55;100.00
21100;BME280;10708;50.824;4.408;2023-05-12T10:26:40;100668.84;;;13.43;100.00
21100;BME280;10708;50.824;4.408;2023-05-12T10:31:43;100674.75;;;13.29;100.00
21100;BME280;10708;50.824;4.408;2023-05-12T10:36:49;100663.84;;;13.37;100.00
21100;BME280;10708;50.824;4.408;2023-05-12T10:42:00;100670.94;;;13.55;100.00
21100;BME280;10708;50.824;4.408;2023-05-12T10:47:11;100660.47;;;13.71;100.00
21100;BME280;10708;50.824;4.408;2023-05-12T10:52:19;100660.88;;;13.99;100.00
21100;BME280;10708;50.824;4.408;2023-05-12T10:57:21;100665.38;;;14.33;100.00
21100;BME280;10708;50.824;4.408;2023-05-12T11:02:24;100669.31;;;14.77;100.00
21100;BME280;10708;50.824;4.408;2023-05-12T11:07:30;100676.91;;;15.35;100.00
21100;BME280;10708;50.824;4.408;2023-05-12T11:12:33;100678.63;;;15.52;100.00
21100;BME280;10708;50.824;4.408;2023-05-12T11:17:39;100680.41;;;16.16;100.00
21100;BME280;10708;50.824;4.408;2023-05-12T11:22:43;100675.91;;;16.32;100.00
21100;BME280;10708;50.824;4.408;2023-05-12T11:27:46;100673.59;;;16.42;100.00
21100;BME280;10708;50.824;4.408;2023-05-12T11:32:59;100670.31;;;16.52;100.00
21100;BME280;10708;50.824;4.408;2023-05-12T11:38:13;100679.09;;;16.07;100.00
21100;BME280;10708;50.824;4.408;2023-05-12T11:43:20;100683.75;;;15.88;100.00
21100;BME280;10708;50.824;4.408;2023-05-12T11:48:32;100674.59;;;15.94;100.00
21100;BME280;10708;50.824;4.408;2023-05-12T11:53:39;100690.25;;;15.98;100.00
21100;BME280;10708;50.824;4.408;2023-05-12T11:58:51;100680.97;;;16.37;100.00
21100;BME280;10708;50.824;4.408;2023-05-12T12:03:53;100690.25;;;16.75;100.00
21100;BME280;10708;50.824;4.408;2023-05-12T12:08:58;100703.38;;;16.01;100.00
21100;BME280;10708;50.824;4.408;2023-05-12T12:14:00;100696.00;;;15.42;100.00
21100;BME280;10708;50.824;4.408;2023-05-12T12:19:02;100710.72;;;15.47;100.00
21100;BME280;10708;50.824;4.408;2023-05-12T12:24:05;100709.03;;;15.46;100.00
21100;BME280;10708;50.824;4.408;2023-05-12T12:29:08;100708.25;;;15.44;100.00
21100;BME280;10708;50.824;4.408;2023-05-12T12:34:10;100711.16;;;15.57;100.00
21100;BME280;10708;50.824;4.408;2023-05-12T12:39:13;100708.50;;;15.88;100.00
21100;BME280;10708;50.824;4.408;2023-05-12T12:44:16;100723.16;;;16.11;100.00
21100;BME280;10708;50.824;4.408;2023-05-12T12:49:18;100733.34;;;16.19;100.00
21100;BME280;10708;50.824;4.408;2023-05-12T12:54:21;100724.34;;;16.53;100.00
21100;BME280;10708;50.824;4.408;2023-05-12T12:59:27;100725.31;;;16.82;100.00
21100;BME280;10708;50.824;4.408;2023-05-12T13:04:29;100733.22;;;16.83;100.00
21100;BME280;10708;50.824;4.408;2023-05-12T13:09:32;100732.81;;;17.05;100.00
21100;BME280;10708;50.824;4.408;2023-05-12T13:14:35;100724.53;;;16.80;100.00
21100;BME280;10708;50.824;4.408;2023-05-12T13:19:36;100742.34;;;16.64;100.00
21100;BME280;10708;50.824;4.408;2023-05-12T13:24:40;100749.78;;;16.57;100.00
21100;BME280;10708;50.824;4.408;2023-05-12T13:29:42;100735.16;;;16.66;100.00
21100;BME280;10708;50.824;4.408;2023-05-12T13:34:47;100748.72;;;16.91;100.00
21100;BME280;10708;50.824;4.408;2023-05-12T13:39:50;100742.50;;;16.76;100.00
21100;BME280;10708;50.824;4.408;2023-05-12T13:44:53;100739.00;;;16.76;100.00
21100;BME280;10708;50.824;4.408;2023-05-12T13:49:56;100756.53;;;16.78;100.00
21100;BME280;10708;50.824;4.408;2023-05-12T13:54:59;100753.81;;;16.80;100.00
21100;BME280;10708;50.824;4.408;2023-05-12T14:00:01;100752.31;;;16.90;100.00
21100;BME280;10708;50.824;4.408;2023-05-12T14:05:04;100747.44;;;17.12;100.00
21100;BME280;10708;50.824;4.408;2023-05-12T14:10:09;100759.13;;;17.10;100.00
21100;BME280;10708;50.824;4.408;2023-05-12T14:15:12;100747.75;;;17.22;100.00
21100;BME280;10708;50.824;4.408;2023-05-12T14:20:14;100749.06;;;17.29;100.00
21100;BME280;10708;50.824;4.408;2023-05-12T14:25:18;100749.84;;;17.17;100.00
21100;BME280;10708;50.824;4.408;2023-05-12T14:30:20;100750.97;;;17.13;100.00
21100;BME280;10708;50.824;4.408;2023-05-12T14:35:22;100756.63;;;17.37;100.00
21100;BME280;10708;50.824;4.408;2023-05-12T14:40:28;100746.72;;;17.24;100.00
21100;BME280;10708;50.824;4.408;2023-05-12T14:45:30;100752.28;;;17.06;100.00
21100;BME280;10708;50.824;4.408;2023-05-12T14:50:32;100758.16;;;16.96;100.00
21100;BME280;10708;50.824;4.408;2023-05-12T14:55:36;100769.63;;;16.97;100.00
21100;BME280;10708;50.824;4.408;2023-05-12T15:00:38;100776.94;;;17.38;100.00
21100;BME280;10708;50.824;4.408;2023-05-12T15:05:40;100767.66;;;17.87;100.00
21100;BME280;10708;50.824;4.408;2023-05-12T15:10:45;100759.94;;;18.25;100.00
21100;BME280;10708;50.824;4.408;2023-05-12T15:15:47;100766.63;;;18.45;100.00
21100;BME280;10708;50.824;4.408;2023-05-12T15:20:49;100762.16;;;18.46;100.00
21100;BME280;10708;50.824;4.408;2023-05-12T15:25:53;100768.81;;;18.12;100.00
21100;BME280;10708;50.824;4.408;2023-05-12T15:30:56;100774.72;;;17.88;100.00
21100;BME280;10708;50.824;4.408;2023-05-12T15:35:59;100771.31;;;17.72;100.00
21100;BME280;10708;50.824;4.408;2023-05-12T15:41:03;100786.91;;;17.64;100.00
21100;BME280;10708;50.824;4.408;2023-05-12T15:46:05;100790.38;;;17.50;100.00
21100;BME280;10708;50.824;4.408;2023-05-12T15:51:07;100791.09;;;17.68;100.00
21100;BME280;10708;50.824;4.408;2023-05-12T15:56:11;100796.81;;;18.04;100.00
21100;BME280;10708;50.824;4.408;2023-05-12T16:01:14;100786.31;;;18.16;100.00
21100;BME280;10708;50.824;4.408;2023-05-12T16:06:17;100781.53;;;18.21;100.00
21100;BME280;10708;50.824;4.408;2023-05-12T16:11:21;100789.00;;;18.16;100.00
21100;BME280;10708;50.824;4.408;2023-05-12T16:16:23;100783.84;;;18.13;100.00
21100;BME280;10708;50.824;4.408;2023-05-12T16:21:25;100785.06;;;18.07;100.00
21100;BME280;10708;50.824;4.408;2023-05-12T16:26:29;100806.25;;;17.52;100.00
21100;BME280;10708;50.824;4.408;2023-05-12T16:31:31;100810.66;;;16.93;100.00
21100;BME280;10708;50.824;4.408;2023-05-12T16:36:33;100810.75;;;16.91;100.00
21100;BME280;10708;50.824;4.408;2023-05-12T16:41:37;100819.53;;;16.78;100.00
21100;BME280;10708;50.824;4.408;2023-05-12T16:46:42;100808.38;;;16.55;100.00
21100;BME280;10708;50.824;4.408;2023-05-12T16:51:44;100812.56;;;16.59;100.00
21100;BME280;10708;50.824;4.408;2023-05-12T16:56:48;100820.91;;;16.53;100.00
21100;BME280;10708;50.824;4.408;2023-05-12T17:01:51;100837.28;;;16.46;100.00
21100;BME280;10708;50.824;4.408;2023-05-12T17:06:53;100832.97;;;16.28;100.00
21100;BME280;10708;50.824;4.408;2023-05-12T17:11:57;100853.56;;;16.24;100.00
21100;BME280;10708;50.824;4.408;2023-05-12T17:17:01;100853.28;;;16.13;100.00
21100;BME280;10708;50.824;4.408;2023-05-12T17:22:04;100861.25;;;16.13;100.00
21100;BME280;10708;50.824;4.408;2023-05-12T17:27:09;100870.50;;;16.06;100.00
21100;BME280;10708;50.824;4.408;2023-05-12T17:32:11;100877.25;;;16.11;100.00
21100;BME280;10708;50.824;4.408;2023-05-12T17:37:14;100874.53;;;16.13;100.00
21100;BME280;10708;50.824;4.408;2023-05-12T17:42:18;100886.00;;;16.13;100.00
21100;BME280;10708;50.824;4.408;2023-05-12T17:47:20;100873.59;;;16.14;100.00
21100;BME280;10708;50.824;4.408;2023-05-12T17:52:22;100881.88;;;16.08;100.00
21100;BME280;10708;50.824;4.408;2023-05-12T17:57:26;100881.63;;;15.97;100.00
21100;BME280;10708;50.824;4.408;2023-05-12T18:02:28;100885.28;;;15.94;100.00
21100;BME280;10708;50.824;4.408;2023-05-12T18:07:30;100884.03;;;15.84;100.00
21100;BME280;10708;50.824;4.408;2023-05-12T18:12:33;100881.63;;;15.97;100.00
21100;BME280;10708;50.824;4.408;2023-05-12T18:17:37;100886.50;;;16.04;100.00
21100;BME280;10708;50.824;4.408;2023-05-12T18:22:39;100898.94;;;16.04;100.00
21100;BME280;10708;50.824;4.408;2023-05-12T18:27:42;100912.06;;;15.90;100.00
21100;BME280;10708;50.824;4.408;2023-05-12T18:32:45;100907.88;;;15.85;100.00
21100;BME280;10708;50.824;4.408;2023-05-12T18:37:47;100911.09;;;15.75;100.00
21100;BME280;10708;50.824;4.408;2023-05-12T18:42:51;100898.44;;;15.63;100.00
21100;BME280;10708;50.824;4.408;2023-05-12T18:47:53;100901.22;;;15.60;100.00
21100;BME280;10708;50.824;4.408;2023-05-12T18:52:56;100914.81;;;15.54;100.00
21100;BME280;10708;50.824;4.408;2023-05-12T18:58:00;100917.06;;;15.44;100.00
21100;BME280;10708;50.824;4.408;2023-05-12T19:03:02;100925.41;;;15.36;100.00
21100;BME280;10708;50.824;4.408;2023-05-12T19:08:04;100928.34;;;15.30;100.00
21100;BME280;10708;50.824;4.408;2023-05-12T19:13:08;100935.41;;;15.12;100.00
21100;BME280;10708;50.824;4.408;2023-05-12T19:18:10;100941.91;;;15.07;100.00
21100;BME280;10708;50.824;4.408;2023-05-12T19:23:12;100933.59;;;14.96;100.00
21100;BME280;10708;50.824;4.408;2023-05-12T19:28:17;100940.19;;;14.87;100.00
21100;BME280;10708;50.824;4.408;2023-05-12T19:33:20;100950.09;;;14.84;100.00
21100;BME280;10708;50.824;4.408;2023-05-12T19:38:22;100960.56;;;14.87;100.00
21100;BME280;10708;50.824;4.408;2023-05-12T19:43:26;100961.91;;;14.76;100.00
21100;BME280;10708;50.824;4.408;2023-05-12T19:48:31;100968.56;;;14.85;100.00
21100;BME280;10708;50.824;4.408;2023-05-12T19:53:33;100971.84;;;14.90;100.00
21100;BME280;10708;50.824;4.408;2023-05-12T19:58:37;100966.34;;;14.95;100.00
21100;BME280;10708;50.824;4.408;2023-05-12T20:03:39;100969.88;;;14.95;100.00
21100;BME280;10708;50.824;4.408;2023-05-12T20:08:41;100972.50;;;14.95;100.00
21100;BME280;10708;50.824;4.408;2023-05-12T20:13:45;100981.97;;;15.01;100.00
21100;BME280;10708;50.824;4.408;2023-05-12T20:18:47;100984.41;;;15.05;100.00
21100;BME280;10708;50.824;4.408;2023-05-12T20:23:50;101002.97;;;15.05;100.00
21100;BME280;10708;50.824;4.408;2023-05-12T20:28:54;101018.03;;;15.05;100.00
21100;BME280;10708;50.824;4.408;2023-05-12T20:33:56;101014.34;;;15.07;100.00
21100;BME280;10708;50.824;4.408;2023-05-12T20:39:01;101027.59;;;15.07;100.00
21100;BME280;10708;50.824;4.408;2023-05-12T20:44:06;101024.63;;;14.96;100.00
21100;BME280;10708;50.824;4.408;2023-05-12T20:49:08;101027.34;;;14.95;100.00
21100;BME280;10708;50.824;4.408;2023-05-12T20:54:10;101022.75;;;14.98;100.00
21100;BME280;10708;50.824;4.408;2023-05-12T20:59:14;101035.00;;;15.01;100.00
21100;BME280;10708;50.824;4.408;2023-05-12T21:04:16;101041.78;;;14.88;100.00
21100;BME280;10708;50.824;4.408;2023-05-12T21:09:18;101033.50;;;14.95;100.00
21100;BME280;10708;50.824;4.408;2023-05-12T21:14:21;101035.88;;;14.83;100.00
21100;BME280;10708;50.824;4.408;2023-05-12T21:19:23;101046.19;;;14.89;100.00
21100;BME280;10708;50.824;4.408;2023-05-12T21:24:25;101057.94;;;14.83;100.00
21100;BME280;10708;50.824;4.408;2023-05-12T21:29:29;101062.66;;;14.76;100.00
21100;BME280;10708;50.824;4.408;2023-05-12T21:34:31;101059.06;;;14.77;100.00
21100;BME280;10708;50.824;4.408;2023-05-12T21:39:35;101067.81;;;14.80;100.00
21100;BME280;10708;50.824;4.408;2023-05-12T21:44:38;101052.31;;;14.70;100.00
21100;BME280;10708;50.824;4.408;2023-05-12T21:49:40;101059.56;;;14.67;100.00
21100;BME280;10708;50.824;4.408;2023-05-12T21:54:42;101049.88;;;14.66;100.00
21100;BME280;10708;50.824;4.408;2023-05-12T21:59:45;101064.88;;;14.67;100.00
21100;BME280;10708;50.824;4.408;2023-05-12T22:04:47;101066.84;;;14.62;100.00
21100;BME280;10708;50.824;4.408;2023-05-12T22:09:49;101066.13;;;14.58;100.00
21100;BME280;10708;50.824;4.408;2023-05-12T22:14:53;101064.09;;;14.45;100.00
21100;BME280;10708;50.824;4.408;2023-05-12T22:19:55;101068.91;;;14.35;100.00
21100;BME280;10708;50.824;4.408;2023-05-12T22:24:57;101077.19;;;14.27;100.00
21100;BME280;10708;50.824;4.408;2023-05-12T22:30:01;101075.22;;;14.11;100.00
21100;BME280;10708;50.824;4.408;2023-05-12T22:35:03;101079.53;;;14.13;100.00
21100;BME280;10708;50.824;4.408;2023-05-12T22:40:09;101081.50;;;14.08;100.00
21100;BME280;10708;50.824;4.408;2023-05-12T22:45:12;101088.13;;;13.98;100.00
21100;BME280;10708;50.824;4.408;2023-05-12T22:50:15;101091.94;;;13.91;100.00
21100;BME280;10708;50.824;4.408;2023-05-12T22:55:17;101103.78;;;13.82;100.00
21100;BME280;10708;50.824;4.408;2023-05-12T23:00:20;101101.56;;;13.72;100.00
21100;BME280;10708;50.824;4.408;2023-05-12T23:05:22;101097.56;;;13.61;100.00
21100;BME280;10708;50.824;4.408;2023-05-12T23:10:24;101103.09;;;13.55;100.00
21100;BME280;10708;50.824;4.408;2023-05-12T23:15:28;101100.47;;;13.55;100.00
21100;BME280;10708;50.824;4.408;2023-05-12T23:20:30;101099.72;;;13.52;100.00
21100;BME280;10708;50.824;4.408;2023-05-12T23:25:32;101091.88;;;13.49;100.00
21100;BME280;10708;50.824;4.408;2023-05-12T23:30:36;101084.75;;;13.51;100.00
21100;BME280;10708;50.824;4.408;2023-05-12T23:35:38;101090.97;;;13.50;100.00
21100;BME280;10708;50.824;4.408;2023-05-12T23:40:40;101091.09;;;13.47;100.00
21100;BME280;10708;50.824;4.408;2023-05-12T23:45:44;101079.03;;;13.40;100.00
21100;BME280;10708;50.824;4.408;2023-05-12T23:50:46;101075.00;;;13.29;100.00
21100;BME280;10708;50.824;4.408;2023-05-12T23:55:48;101069.59;;;13.33;100.00
